Terminal Aerodrome Forecast
Issued by NWS Blacksburg, VA

Current Version | Previous Version | Text Only | Print | Product List | Glossary On
Versions: 1 2 3 4 5 6 7 8 9 10 11 12 13 14 15 16 17 18 19 20 21 22 23 24 25 26 27 28 29 30 31 32 33 34
113
FTUS41 KRNK 241122
TAFLYH
TAF
KLYH 241122Z 2412/2512 VRB03KT 5SM BR FEW200
      TEMPO 2412/2413 3SM BR BKN200
     FM241300 00000KT P6SM SCT200
     FM241700 20006KT P6SM SCT250
     FM250600 18007KT P6SM BKN060
      AMD NOT SKED=

USA.gov is the U.S. government's official web portal to all federal, state and local government web resources and services.